Time;durP1;ratioP1;P1;durP2;ratioP2;P2;SDS_P1;SDS_P2;PMS_P1;PMS_P2;Temp;Humidity;BMP_temperature;BMP_pressure;BME280_temperature;BME280_humidity;BME280_pressure;Samples;Min_cycle;Max_cycle;Signal;HPM_P1;HPM_P2
2022/06/08 00:01:33;;;;;;;3.93;2.23;;;;;;;21.10;63.55;98537.66;5074714;28;20164;-88
2022/06/08 00:04:01;;;;;;;4.30;2.50;;;;;;;21.09;63.28;98532.50;5074264;28;20184;-88
2022/06/08 00:06:27;;;;;;;3.37;1.57;;;;;;;21.02;63.34;98529.59;5074574;28;20177;-88
2022/06/08 00:08:53;;;;;;;3.77;2.00;;;;;;;20.94;63.81;98524.22;5074275;28;20173;-88
2022/06/08 00:11:18;;;;;;;5.03;1.80;;;;;;;20.83;64.54;98519.22;5056567;28;20618;-89
2022/06/08 00:13:44;;;;;;;3.07;1.87;;;;;;;20.74;64.89;98525.50;5056633;28;20212;-88
2022/06/08 00:16:11;;;;;;;6.57;1.97;;;;;;;20.83;64.47;98525.34;5074366;28;20184;-88
2022/06/08 00:18:39;;;;;;;9.40;2.23;;;;;;;20.84;64.42;98518.19;5074051;28;20241;-88
2022/06/08 00:21:05;;;;;;;3.60;2.00;;;;;;;20.79;64.50;98516.03;5056445;28;20188;-88
2022/06/08 00:23:31;;;;;;;6.83;2.63;;;;;;;20.78;64.34;98519.69;5056344;28;20690;-88
2022/06/08 00:25:56;;;;;;;3.37;1.80;;;;;;;20.73;64.55;98526.47;5073822;28;20315;-88
2022/06/08 00:28:22;;;;;;;5.50;2.20;;;;;;;20.68;64.84;98523.44;5073899;28;20181;-88
2022/06/08 00:30:49;;;;;;;2.83;1.50;;;;;;;20.62;65.18;98518.78;5073895;28;20535;-88
2022/06/08 00:33:16;;;;;;;4.33;1.30;;;;;;;20.55;65.44;98515.91;5056476;28;20238;-89
2022/06/08 00:35:41;;;;;;;3.57;1.80;;;;;;;20.61;65.19;98515.28;5056073;28;20189;-88
2022/06/08 00:38:07;;;;;;;2.50;1.60;;;;;;;20.69;64.93;98517.16;5073705;28;20540;-88
2022/06/08 00:40:57;;;;;;;4.13;2.03;;;;;;;20.60;65.32;98508.28;5056086;28;20250;-88
2022/06/08 00:43:24;;;;;;;3.10;1.77;;;;;;;20.49;65.48;98505.88;5073908;28;20161;-88
2022/06/08 00:45:49;;;;;;;4.80;1.93;;;;;;;20.35;65.81;98508.28;5073808;28;20200;-88
2022/06/08 00:48:16;;;;;;;3.57;1.67;;;;;;;20.18;66.72;98507.31;5073492;28;20176;-88
2022/06/08 00:50:49;;;;;;;5.93;1.80;;;;;;;20.10;67.04;98509.91;5055884;28;20177;-88
2022/06/08 00:53:19;;;;;;;3.40;2.13;;;;;;;20.23;66.61;98515.66;5055835;28;20165;-88
2022/06/08 00:55:47;;;;;;;2.77;1.57;;;;;;;20.26;66.26;98511.91;5073772;28;20177;-88
2022/06/08 00:58:23;;;;;;;2.80;1.60;;;;;;;20.26;66.15;98512.72;5073692;28;20205;-88
2022/06/08 01:00:50;;;;;;;2.43;1.63;;;;;;;20.22;65.92;98509.53;5073665;28;20209;-90
2022/06/08 01:03:15;;;;;;;3.10;1.90;;;;;;;20.27;65.71;98513.56;5073935;28;20253;-91
2022/06/08 01:05:46;;;;;;;3.77;1.60;;;;;;;20.21;66.26;98512.31;5055644;28;20647;-90
2022/06/08 01:08:28;;;;;;;5.27;2.73;;;;;;;20.17;66.60;98514.47;5073510;28;20167;-91
2022/06/08 01:10:58;;;;;;;4.63;2.13;;;;;;;20.20;66.83;98516.81;5055352;28;20271;-91
2022/06/08 01:13:28;;;;;;;3.90;2.40;;;;;;;20.23;67.05;98511.22;5073213;28;20622;-90
2022/06/08 01:15:54;;;;;;;5.40;2.77;;;;;;;20.23;67.43;98510.34;5056077;28;20200;-88
2022/06/08 01:18:20;;;;;;;5.37;2.50;;;;;;;20.17;67.84;98509.16;5055577;28;20189;-88
2022/06/08 01:20:55;;;;;;;3.87;2.33;;;;;;;20.19;68.07;98503.66;5073171;28;20644;-87
2022/06/08 01:23:22;;;;;;;4.20;2.37;;;;;;;20.16;68.06;98509.31;5073645;28;20176;-90
2022/06/08 01:26:04;;;;;;;7.03;2.90;;;;;;;20.11;68.11;98506.28;5073043;28;20193;-90
2022/06/08 01:28:43;;;;;;;5.33;2.80;;;;;;;20.10;68.24;98502.78;5073170;28;20169;-90
2022/06/08 01:31:31;;;;;;;4.20;2.40;;;;;;;20.04;67.71;98508.75;5055444;28;20172;-90
2022/06/08 01:34:16;;;;;;;5.63;3.20;;;;;;;20.00;67.99;98499.38;5073343;28;20162;-90
2022/06/08 01:36:59;;;;;;;3.87;2.67;;;;;;;20.05;68.25;98496.25;5072976;28;20189;-90
2022/06/08 01:39:40;;;;;;;5.13;2.60;;;;;;;20.02;67.85;98501.91;5073026;28;20227;-90
2022/06/08 01:42:08;;;;;;;4.53;3.10;;;;;;;20.07;67.64;98491.63;5055351;28;20180;-90
2022/06/08 01:47:44;;;;;;;6.73;3.00;;;;;;;19.77;68.99;98502.69;5073298;28;20202;-89
2022/06/08 01:50:28;;;;;;;6.13;2.07;;;;;;;19.75;68.54;98507.31;5073489;28;20165;-90
2022/06/08 01:53:05;;;;;;;4.67;2.30;;;;;;;19.81;68.21;98504.88;5073445;28;20206;-90
2022/06/08 01:55:58;;;;;;;4.53;2.57;;;;;;;19.85;67.68;98503.59;5073152;28;20172;-90
2022/06/08 01:58:48;;;;;;;3.87;2.63;;;;;;;19.87;66.94;98498.94;5073123;28;20173;-89
2022/06/08 02:01:28;;;;;;;6.03;2.20;;;;;;;19.78;67.17;98499.88;5073362;28;20185;-90
2022/06/08 02:04:12;;;;;;;5.13;2.63;;;;;;;19.76;67.38;98498.38;5072796;28;20161;-90
2022/06/08 02:06:42;;;;;;;2.90;2.10;;;;;;;19.74;67.21;98501.16;5055078;28;20181;-90
2022/06/08 02:09:15;;;;;;;4.00;2.27;;;;;;;19.73;67.33;98502.19;5055049;28;20192;-90
2022/06/08 02:11:54;;;;;;;8.90;4.50;;;;;;;19.73;67.36;98506.66;5072994;28;20173;-90
2022/06/08 02:14:27;;;;;;;5.07;2.73;;;;;;;19.80;67.00;98507.69;5073231;28;20246;-90
2022/06/08 02:17:09;;;;;;;3.80;2.30;;;;;;;19.77;66.60;98497.38;5072932;28;20287;-90
2022/06/08 02:19:44;;;;;;;4.93;2.83;;;;;;;19.72;66.45;98500.50;5072644;28;20556;-90
2022/06/08 02:22:19;;;;;;;6.90;2.30;;;;;;;19.68;67.07;98508.94;5076448;28;20599;-90
2022/06/08 02:25:01;;;;;;;4.67;2.47;;;;;;;19.63;67.15;98506.72;5076770;28;20180;-90
2022/06/08 02:27:41;;;;;;;5.57;2.90;;;;;;;19.60;67.60;98502.53;5076523;28;20166;-90
2022/06/08 02:30:14;;;;;;;3.43;2.30;;;;;;;19.58;67.69;98506.34;5076424;28;20519;-90
2022/06/08 02:35:40;;;;;;;4.93;2.77;;;;;;;19.50;67.85;98500.94;5076404;28;20239;-90
2022/06/08 02:38:11;;;;;;;4.17;2.33;;;;;;;19.48;67.74;98513.56;5076316;28;20169;-90
2022/06/08 02:40:41;;;;;;;4.37;2.57;;;;;;;19.42;67.96;98514.16;5076303;28;20598;-90
2022/06/08 02:43:16;;;;;;;4.33;2.60;;;;;;;19.38;68.49;98512.78;5076543;28;20168;-90
2022/06/08 02:45:44;;;;;;;6.50;2.33;;;;;;;19.43;68.20;98524.66;5058245;28;20223;-90
2022/06/08 02:48:13;;;;;;;4.33;2.80;;;;;;;19.51;67.95;98522.06;5075828;28;20169;-90
2022/06/08 02:50:54;;;;;;;5.93;3.37;;;;;;;19.56;67.45;98516.28;5075764;28;20276;-90
2022/06/08 02:53:20;;;;;;;3.63;2.43;;;;;;;19.55;67.54;98519.94;5076087;28;20580;-90
2022/06/08 02:56:00;;;;;;;5.10;2.73;;;;;;;19.49;67.31;98524.06;5075647;28;20207;-90
2022/06/08 02:58:39;;;;;;;4.77;3.27;;;;;;;19.34;68.37;98520.19;5076539;28;20674;-90
2022/06/08 03:01:19;;;;;;;6.00;3.57;;;;;;;19.26;69.22;98525.41;5058043;28;20268;-90
2022/06/08 03:03:52;;;;;;;7.90;3.27;;;;;;;19.20;69.91;98535.81;5075925;28;20153;-90
2022/06/08 03:06:37;;;;;;;4.33;2.97;;;;;;;19.11;70.63;98531.38;5075786;28;20216;-90
2022/06/08 03:09:05;;;;;;;5.67;2.80;;;;;;;19.11;70.15;98531.38;5057935;28;20183;-90
2022/06/08 03:11:37;;;;;;;7.03;3.27;;;;;;;19.20;69.79;98538.47;5057754;28;20664;-90
2022/06/08 03:14:07;;;;;;;4.90;3.13;;;;;;;19.29;69.43;98548.19;5058133;28;20576;-90
2022/06/08 03:16:41;;;;;;;4.13;2.77;;;;;;;19.35;68.97;98548.44;5075361;28;20655;-90
2022/06/08 03:19:09;;;;;;;4.93;2.47;;;;;;;19.42;69.30;98551.38;5075641;28;20164;-90
2022/06/08 03:21:35;;;;;;;7.07;3.60;;;;;;;19.47;69.37;98544.63;5057682;28;20271;-90
2022/06/08 03:24:02;;;;;;;3.73;2.50;;;;;;;19.44;70.51;98549.41;5057560;28;20183;-90
2022/06/08 03:26:36;;;;;;;6.30;2.70;;;;;;;19.50;70.35;98540.81;5075067;28;20212;-90
2022/06/08 03:29:02;;;;;;;4.43;2.83;;;;;;;19.48;70.09;98540.97;5075130;28;20645;-90
2022/06/08 03:31:27;;;;;;;4.13;2.50;;;;;;;19.38;70.20;98545.53;5075096;28;20169;-90
2022/06/08 03:33:53;;;;;;;5.73;2.50;;;;;;;19.31;69.75;98540.94;5051111;28;20240;-90
2022/06/08 03:36:18;;;;;;;5.07;2.83;;;;;;;19.34;69.27;98538.78;5060180;28;20197;-90
2022/06/08 03:38:44;;;;;;;5.67;2.77;;;;;;;19.23;69.77;98547.00;5054862;28;20201;-90
2022/06/08 03:41:10;;;;;;;6.07;3.27;;;;;;;19.19;69.96;98558.06;5037549;28;20188;-90
2022/06/08 03:43:36;;;;;;;4.53;2.77;;;;;;;19.23;69.68;98554.13;5055408;28;20181;-89
2022/06/08 03:46:03;;;;;;;3.47;2.17;;;;;;;19.21;69.38;98548.94;5055254;28;20193;-90
2022/06/08 03:48:29;;;;;;;4.20;2.60;;;;;;;19.24;69.24;98548.66;5054732;28;20181;-90
2022/06/08 03:50:58;;;;;;;7.20;3.30;;;;;;;19.24;69.06;98539.84;5054727;28;20174;-90
2022/06/08 03:53:34;;;;;;;5.53;2.90;;;;;;;19.26;69.37;98536.03;5055151;28;20243;-90
2022/06/08 03:56:02;;;;;;;4.67;2.93;;;;;;;19.17;70.20;98542.28;5053140;28;20196;-90
2022/06/08 03:58:28;;;;;;;6.00;2.93;;;;;;;19.12;70.96;98539.22;5057489;28;20208;-90
2022/06/08 04:00:53;;;;;;;11.03;3.50;;;;;;;19.22;70.58;98541.81;5055064;28;20230;-90
2022/06/08 04:03:19;;;;;;;5.43;2.83;;;;;;;19.22;70.20;98547.13;5056763;28;20185;-89
2022/06/08 04:05:45;;;;;;;5.30;2.97;;;;;;;19.23;70.70;98540.84;5056649;28;20366;-90
2022/06/08 04:08:11;;;;;;;4.97;2.63;;;;;;;19.21;70.61;98545.47;5073137;28;20619;-90
2022/06/08 04:10:39;;;;;;;4.37;2.67;;;;;;;19.33;70.38;98536.31;5056139;28;20207;-89
2022/06/08 04:13:05;;;;;;;4.43;2.37;;;;;;;19.44;69.96;98534.28;5035132;28;20639;-89
2022/06/08 04:15:45;;;;;;;6.43;2.63;;;;;;;19.50;70.00;98544.31;5035735;28;20184;-89
2022/06/08 04:18:14;;;;;;;4.60;2.40;;;;;;;19.37;71.10;98550.94;5054025;28;20158;-90
2022/06/08 04:20:45;;;;;;;4.80;2.77;;;;;;;19.36;71.66;98558.09;5054108;28;20181;-90
2022/06/08 04:23:11;;;;;;;4.00;2.07;;;;;;;19.41;72.06;98560.34;5054633;28;20231;-90
2022/06/08 04:25:38;;;;;;;4.83;2.20;;;;;;;19.57;71.96;98571.97;5054171;28;20209;-89
2022/06/08 04:28:05;;;;;;;16.13;3.17;;;;;;;19.63;70.73;98567.88;5053980;28;20180;-89
2022/06/08 04:30:31;;;;;;;4.03;1.93;;;;;;;19.65;70.20;98568.56;5053912;28;20185;-90
2022/06/08 04:32:57;;;;;;;3.43;1.90;;;;;;;19.82;69.75;98564.22;5053857;28;20515;-89
2022/06/08 04:35:24;;;;;;;3.67;2.30;;;;;;;19.94;69.49;98558.50;5036070;28;20190;-87
2022/06/08 04:37:50;;;;;;;5.33;2.20;;;;;;;20.02;69.65;98561.25;5053774;28;20533;-88
2022/06/08 04:40:16;;;;;;;4.43;2.57;;;;;;;20.03;69.93;98562.09;5053747;28;20203;-88
2022/06/08 04:42:42;;;;;;;5.90;2.30;;;;;;;20.09;70.23;98558.81;5036160;28;20180;-87
2022/06/08 04:45:09;;;;;;;5.20;2.73;;;;;;;20.14;70.48;98565.34;5053564;28;20197;-87
2022/06/08 04:47:35;;;;;;;5.00;2.90;;;;;;;20.15;70.87;98563.53;5036130;28;20257;-87
2022/06/08 04:50:01;;;;;;;4.37;2.73;;;;;;;20.31;71.10;98563.66;5053526;28;20619;-88
2022/06/08 04:52:27;;;;;;;4.50;2.63;;;;;;;20.44;71.31;98560.59;5036270;28;20192;-87
2022/06/08 04:54:52;;;;;;;4.60;2.63;;;;;;;20.54;71.51;98561.34;5053733;28;20173;-88
2022/06/08 04:57:18;;;;;;;6.13;2.17;;;;;;;20.72;71.36;98564.78;5053419;28;20176;-88
2022/06/08 04:59:44;;;;;;;5.73;3.23;;;;;;;20.73;71.95;98566.41;5053400;28;20209;-87
2022/06/08 05:02:10;;;;;;;6.87;3.30;;;;;;;20.77;71.75;98570.47;5035848;28;20174;-86
2022/06/08 05:04:36;;;;;;;5.23;3.63;;;;;;;20.85;71.50;98573.16;5035934;28;20633;-87
2022/06/08 05:07:02;;;;;;;4.90;3.23;;;;;;;20.98;71.30;98575.38;5053585;28;20178;-87
2022/06/08 05:09:28;;;;;;;6.07;2.90;;;;;;;21.16;71.77;98569.00;5053305;28;20197;-88
2022/06/08 05:11:53;;;;;;;4.17;2.27;;;;;;;21.38;71.78;98572.91;5053554;28;20622;-88
2022/06/08 05:14:19;;;;;;;5.97;2.53;;;;;;;21.65;70.86;98579.78;5053228;28;20187;-87
2022/06/08 05:16:44;;;;;;;5.07;2.57;;;;;;;21.87;70.02;98581.88;5053427;28;20633;-87
2022/06/08 05:19:10;;;;;;;4.50;2.63;;;;;;;22.02;68.36;98583.72;5053147;28;20239;-87
2022/06/08 05:21:36;;;;;;;7.47;3.23;;;;;;;22.21;68.38;98582.56;5053399;28;20174;-87
2022/06/08 05:24:03;;;;;;;3.57;2.10;;;;;;;22.22;64.94;98578.88;5053367;28;20197;-87
2022/06/08 05:26:28;;;;;;;5.97;2.40;;;;;;;22.42;64.60;98580.22;5052975;28;20193;-87
2022/06/08 05:28:54;;;;;;;7.17;3.00;;;;;;;22.49;62.78;98567.00;5053049;28;20258;-88
2022/06/08 05:31:19;;;;;;;4.87;2.40;;;;;;;22.80;62.53;98575.97;5053269;28;20177;-87
2022/06/08 05:33:45;;;;;;;3.27;2.07;;;;;;;23.07;60.17;98577.41;5053261;28;20178;-87
2022/06/08 05:36:10;;;;;;;4.60;2.80;;;;;;;23.25;58.62;98583.34;5052912;28;20278;-87
2022/06/08 05:38:36;;;;;;;4.87;2.30;;;;;;;23.47;58.10;98590.63;5052989;28;20182;-87
2022/06/08 05:41:02;;;;;;;9.50;2.73;;;;;;;23.71;57.57;98589.66;5053201;28;20189;-87
2022/06/08 05:43:28;;;;;;;13.90;6.53;;;;;;;23.89;57.60;98579.50;5052866;28;20178;-87
2022/06/08 05:45:53;;;;;;;4.77;3.03;;;;;;;23.98;57.20;98586.47;5052849;28;20267;-88
2022/06/08 05:48:19;;;;;;;5.13;2.77;;;;;;;23.91;58.00;98573.97;5035542;28;20197;-88
2022/06/08 05:50:45;;;;;;;7.00;3.67;;;;;;;24.07;57.60;98576.53;5035273;28;20196;-88
2022/06/08 05:53:13;;;;;;;5.77;3.03;;;;;;;24.23;57.06;98573.75;5052847;28;20181;-88
2022/06/08 05:55:39;;;;;;;5.33;3.20;;;;;;;24.40;57.09;98572.59;5054689;28;20181;-88
2022/06/08 05:58:05;;;;;;;8.93;3.20;;;;;;;24.51;56.58;98571.31;5039222;28;20178;-88
2022/06/08 06:00:35;;;;;;;5.80;3.40;;;;;;;24.76;56.23;98570.91;5056732;28;20257;-88
2022/06/08 06:03:03;;;;;;;7.97;3.67;;;;;;;24.93;55.69;98560.84;5056699;28;20174;-88
2022/06/08 06:05:31;;;;;;;6.63;3.43;;;;;;;25.16;55.50;98568.81;5056566;28;20198;-87
2022/06/08 06:07:57;;;;;;;5.53;3.53;;;;;;;25.37;53.72;98564.31;5039054;28;20189;-87
2022/06/08 06:10:35;;;;;;;5.37;2.97;;;;;;;25.48;53.00;98560.34;5039030;28;20177;-89
2022/06/08 06:13:01;;;;;;;4.67;2.73;;;;;;;25.58;54.44;98561.69;5038955;28;20276;-87
2022/06/08 06:15:27;;;;;;;5.57;2.97;;;;;;;25.81;53.09;98566.09;5056729;28;20241;-88
2022/06/08 06:17:54;;;;;;;9.63;3.30;;;;;;;25.97;51.48;98566.66;5056437;28;20173;-88
2022/06/08 06:20:23;;;;;;;6.23;3.57;;;;;;;26.23;50.12;98560.75;5038747;28;20186;-88
2022/06/08 06:22:50;;;;;;;8.10;3.43;;;;;;;26.46;49.63;98565.88;5056262;28;20174;-88
2022/06/08 06:25:16;;;;;;;6.40;2.90;;;;;;;26.61;51.10;98570.13;5039172;28;20209;-88
2022/06/08 06:27:41;;;;;;;3.97;2.45;;;;;;;26.75;50.64;98560.31;5038676;28;20634;-88
2022/06/08 06:30:08;;;;;;;6.80;2.70;;;;;;;26.89;50.23;98556.69;5056183;28;20660;-88
2022/06/08 06:32:43;;;;;;;5.20;2.83;;;;;;;27.12;48.85;98565.28;5056422;28;20269;-89
2022/06/08 06:35:17;;;;;;;5.65;3.10;;;;;;;27.24;48.88;98560.19;5038641;28;20267;-89
2022/06/08 06:37:42;;;;;;;8.40;2.33;;;;;;;27.37;49.08;98561.06;5038585;28;20192;-88
2022/06/08 06:40:10;;;;;;;4.15;2.50;;;;;;;27.60;48.92;98557.22;5038769;28;20623;-88
2022/06/08 06:42:36;;;;;;;6.28;2.53;;;;;;;27.75;48.73;98552.53;5055981;28;20188;-88
2022/06/08 06:45:04;;;;;;;5.63;2.17;;;;;;;27.90;46.06;98547.78;5056136;28;20276;-89
2022/06/08 06:47:30;;;;;;;4.97;2.67;;;;;;;27.92;46.49;98548.41;5038337;28;20185;-88
2022/06/08 06:49:56;;;;;;;4.45;2.58;;;;;;;28.12;46.56;98548.47;5039123;28;20533;-88
2022/06/08 06:52:22;;;;;;;4.25;2.30;;;;;;;28.32;46.71;98547.44;5056339;28;20616;-89
2022/06/08 06:54:48;;;;;;;6.38;3.10;;;;;;;28.68;45.61;98543.47;5055735;28;20185;-88
2022/06/08 06:57:14;;;;;;;5.22;2.90;;;;;;;28.95;44.14;98547.78;5055996;28;20178;-88
2022/06/08 06:59:40;;;;;;;4.32;2.50;;;;;;;29.17;43.17;98546.47;5038873;28;20181;-88
2022/06/08 07:02:20;;;;;;;4.15;2.40;;;;;;;29.20;43.51;98548.75;5055620;28;20269;-90
2022/06/08 07:04:47;;;;;;;3.00;1.98;;;;;;;29.10;43.57;98543.81;5037945;28;20274;-88
2022/06/08 07:07:18;;;;;;;3.92;1.90;;;;;;;29.05;44.86;98550.88;5054620;28;20217;-89
2022/06/08 07:10:46;;;;;;;;;;;;;;;;;;;;;
2022/06/08 07:13:22;;;;;;;3.45;2.30;;;;;;;28.55;45.26;98539.75;5026144;28;20189;-89
2022/06/08 07:15:55;;;;;;;3.80;1.95;;;;;;;28.60;45.29;98539.94;5038075;28;20161;-89
2022/06/08 07:18:21;;;;;;;4.15;2.38;;;;;;;28.53;45.14;98538.31;5038872;28;20227;-88
2022/06/08 07:20:52;;;;;;;4.82;2.00;;;;;;;28.32;44.95;98528.56;5055258;28;20627;-89
2022/06/08 07:23:20;;;;;;;4.18;1.77;;;;;;;28.15;42.44;98527.31;5038320;28;20170;-89
2022/06/08 07:25:48;;;;;;;4.32;1.92;;;;;;;27.99;44.80;98527.69;5055104;28;20729;-89
2022/06/08 07:28:14;;;;;;;5.05;2.35;;;;;;;28.18;44.52;98523.38;5037499;28;20635;-89
2022/06/08 07:30:45;;;;;;;5.38;2.15;;;;;;;28.28;44.43;98524.63;5037488;28;20178;-89
2022/06/08 07:33:11;;;;;;;6.43;2.47;;;;;;;28.42;45.22;98520.06;5055684;28;20158;-89
2022/06/08 07:35:57;;;;;;;5.10;2.20;;;;;;;28.76;45.03;98525.22;5037395;28;20193;-89
2022/06/08 07:38:23;;;;;;;5.13;2.60;;;;;;;28.86;44.69;98517.50;5055263;28;20603;-88
2022/06/08 07:40:57;;;;;;;5.75;2.72;;;;;;;29.37;43.87;98517.56;5054951;28;20189;-88
2022/06/08 08:42:35;;;;;;;4.88;3.53;;;;;;;31.28;37.05;98517.63;5460444;23;20229;-90
2022/06/08 08:48:59;;;;;;;;;;;;;;;;;;;;;
